createdAt,value
2019-01-23T00:02:35.594Z,-7.33
2019-01-23T00:05:37.605Z,-7.36
2019-01-23T00:08:39.601Z,-7.36
2019-01-23T00:11:41.545Z,-7.44
2019-01-23T00:14:43.715Z,-7.44
2019-01-23T00:17:45.670Z,-7.48
2019-01-23T00:20:47.748Z,-7.52
2019-01-23T00:23:49.670Z,-7.52
2019-01-23T00:26:51.645Z,-7.51
2019-01-23T00:29:53.630Z,-7.47
2019-01-23T00:32:55.642Z,-7.37
2019-01-23T00:35:57.580Z,-7.30
2019-01-23T00:38:59.605Z,-7.18
2019-01-23T00:42:01.595Z,-7.18
2019-01-23T00:45:06.674Z,-7.19
2019-01-23T00:48:08.637Z,-7.11
2019-01-23T00:51:10.672Z,-6.94
2019-01-23T00:54:12.884Z,-6.94
2019-01-23T00:57:14.905Z,-6.89
2019-01-23T01:00:22.810Z,-6.85
2019-01-23T01:03:24.759Z,-6.85
2019-01-23T01:06:26.671Z,-6.86
2019-01-23T01:09:28.958Z,-6.74
2019-01-23T01:12:31.546Z,-6.74
2019-01-23T01:15:33.791Z,-6.71
2019-01-23T01:18:35.750Z,-6.98
2019-01-23T01:21:37.758Z,-6.90
2019-01-23T01:24:39.757Z,-7.03
2019-01-23T01:27:41.827Z,-7.08
2019-01-23T01:30:43.825Z,-7.03
2019-01-23T01:33:45.787Z,-7.03
2019-01-23T01:36:47.755Z,-6.94
2019-01-23T01:39:49.761Z,-6.94
2019-01-23T01:42:51.712Z,-6.86
2019-01-23T01:45:54.355Z,-6.84
2019-01-23T01:48:56.441Z,-6.88
2019-01-23T01:51:58.409Z,-6.88
2019-01-23T01:55:00.429Z,-7.05
2019-01-23T01:58:02.731Z,-7.05
2019-01-23T02:01:04.699Z,-7.09
2019-01-23T02:04:06.838Z,-7.19
2019-01-23T02:07:08.824Z,-7.19
2019-01-23T02:10:13.959Z,-7.17
2019-01-23T02:13:16.400Z,-7.32
2019-01-23T02:16:18.558Z,-7.32
2019-01-23T02:19:20.624Z,-7.31
2019-01-23T02:22:23.917Z,-7.17
2019-01-23T02:25:25.839Z,-7.14
2019-01-23T02:28:27.867Z,-7.18
2019-01-23T02:31:29.847Z,-7.11
2019-01-23T02:34:31.868Z,-7.03
2019-01-23T02:37:33.824Z,-7.07
2019-01-23T02:40:35.843Z,-7.07
2019-01-23T02:43:37.811Z,-7.17
2019-01-23T02:46:39.844Z,-7.23
2019-01-23T02:49:41.749Z,-7.08
2019-01-23T02:52:43.709Z,-6.97
2019-01-23T02:55:45.683Z,-6.96
2019-01-23T02:58:47.746Z,-6.98
2019-01-23T03:01:49.678Z,-6.96
2019-01-23T03:04:51.689Z,-6.87
2019-01-23T03:07:53.675Z,-6.99
2019-01-23T03:10:55.693Z,-7.11
2019-01-23T03:13:57.930Z,-7.16
2019-01-23T03:17:00.076Z,-7.08
2019-01-23T03:20:02.673Z,-7.02
2019-01-23T03:23:05.911Z,-6.96
2019-01-23T03:26:07.891Z,-6.92
2019-01-23T03:29:09.851Z,-6.93
2019-01-23T03:32:11.742Z,-6.93
2019-01-23T03:35:13.732Z,-6.83
2019-01-23T03:38:15.678Z,-6.83
2019-01-23T03:41:17.645Z,-6.83
2019-01-23T03:44:19.598Z,-6.90
2019-01-23T03:47:21.690Z,-7.08
2019-01-23T03:50:23.640Z,-7.07
2019-01-23T03:53:25.635Z,-7.25
2019-01-23T03:56:27.721Z,-7.25
2019-01-23T03:59:32.343Z,-7.14
2019-01-23T04:02:34.552Z,-6.92
2019-01-23T04:05:36.557Z,-6.81
2019-01-23T04:08:38.523Z,-6.71
2019-01-23T04:11:40.559Z,-6.71
2019-01-23T04:14:43.114Z,-6.81
2019-01-23T04:17:45.423Z,-6.89
2019-01-23T04:20:47.379Z,-6.69
2019-01-23T04:23:49.918Z,-6.94
2019-01-23T04:26:51.849Z,-6.70
2019-01-23T04:29:53.883Z,-6.66
2019-01-23T04:32:55.858Z,-6.76
2019-01-23T04:35:57.892Z,-6.76
2019-01-23T04:38:59.873Z,-6.85
2019-01-23T04:42:01.835Z,-6.83
2019-01-23T04:45:07.075Z,-6.82
2019-01-23T04:48:09.157Z,-6.82
2019-01-23T04:51:18.924Z,-6.72
2019-01-23T04:54:20.934Z,-6.58
2019-01-23T04:57:22.925Z,-6.58
2019-01-23T05:00:26.757Z,-6.76
2019-01-23T05:03:28.715Z,-6.84
2019-01-23T05:06:30.698Z,-6.87
2019-01-23T05:09:32.645Z,-6.99
2019-01-23T05:12:34.635Z,-7.02
2019-01-23T05:15:36.548Z,-6.90
2019-01-23T05:18:38.639Z,-6.69
2019-01-23T05:21:40.650Z,-6.67
2019-01-23T05:24:42.668Z,-6.56
2019-01-23T05:27:44.639Z,-6.43
2019-01-23T05:30:46.714Z,-6.37
2019-01-23T05:33:48.675Z,-6.37
2019-01-23T05:36:50.639Z,-6.42
2019-01-23T05:39:52.621Z,-6.32
2019-01-23T05:42:54.654Z,-6.36
2019-01-23T05:45:56.635Z,-6.53
2019-01-23T05:48:58.646Z,-6.58
2019-01-23T05:52:00.855Z,-6.74
2019-01-23T05:55:04.927Z,-6.60
2019-01-23T05:58:06.878Z,-6.45
2019-01-23T06:01:08.956Z,-6.45
2019-01-23T06:04:10.935Z,-6.36
2019-01-23T06:07:12.944Z,-6.36
2019-01-23T06:10:14.955Z,-6.52
2019-01-23T06:13:16.993Z,-6.53
2019-01-23T06:16:18.994Z,-6.49
2019-01-23T06:19:22.031Z,-6.56
2019-01-23T06:22:24.100Z,-6.56
2019-01-23T06:25:26.108Z,-6.71
2019-01-23T06:28:28.124Z,-6.56
2019-01-23T06:31:30.173Z,-6.39
2019-01-23T06:34:32.098Z,-6.31
2019-01-23T06:37:34.096Z,-6.31
2019-01-23T06:40:36.051Z,-6.30
2019-01-23T06:43:38.063Z,-6.30
2019-01-23T06:46:40.038Z,-6.29
2019-01-23T06:49:42.168Z,-6.28
2019-01-23T06:52:44.105Z,-6.28
2019-01-23T06:55:46.135Z,-6.42
2019-01-23T06:58:48.036Z,-6.47
2019-01-23T07:01:49.996Z,-6.47
2019-01-23T07:04:51.998Z,-6.48
2019-01-23T07:07:53.922Z,-6.47
2019-01-23T07:10:55.919Z,-6.32
2019-01-23T07:13:57.945Z,-6.26
2019-01-23T07:16:59.892Z,-6.26
2019-01-23T07:20:02.094Z,-6.23
2019-01-23T07:23:04.373Z,-6.13
2019-01-23T07:26:06.379Z,-6.18
2019-01-23T07:29:08.329Z,-6.24
2019-01-23T07:32:11.362Z,-6.25
2019-01-23T07:35:13.737Z,-6.31
2019-01-23T07:38:15.806Z,-6.31
2019-01-23T07:41:18.886Z,-6.18
2019-01-23T07:44:20.955Z,-6.13
2019-01-23T07:47:22.885Z,-5.99
2019-01-23T07:50:24.930Z,-5.99
2019-01-23T07:53:27.008Z,-5.99
2019-01-23T07:56:29.085Z,-6.00
2019-01-23T07:59:31.093Z,-5.86
2019-01-23T08:02:33.120Z,-5.81
2019-01-23T08:05:35.054Z,-5.75
2019-01-23T08:08:37.080Z,-5.60
2019-01-23T08:11:39.384Z,-5.60
2019-01-23T08:14:42.202Z,-5.56
2019-01-23T08:17:44.493Z,-5.46
2019-01-23T08:20:46.644Z,-5.46
2019-01-23T08:23:48.975Z,-5.36
2019-01-23T08:26:51.012Z,-5.28
2019-01-23T08:29:52.929Z,-5.38
2019-01-23T08:32:54.938Z,-5.37
2019-01-23T08:35:56.897Z,-5.33
2019-01-23T08:38:58.888Z,-5.31
2019-01-23T08:42:01.019Z,-5.15
2019-01-23T08:45:05.719Z,-5.14
2019-01-23T08:48:07.650Z,-5.03
2019-01-23T08:51:09.660Z,-5.04
2019-01-23T08:54:11.664Z,-5.05
2019-01-23T08:57:13.704Z,-4.93
2019-01-23T09:00:16.568Z,-4.80
2019-01-23T09:03:18.506Z,-4.62
2019-01-23T09:06:21.869Z,-4.52
2019-01-23T09:09:24.196Z,-4.46
2019-01-23T09:12:26.207Z,-4.49
2019-01-23T09:15:28.198Z,-4.53
2019-01-23T09:18:30.153Z,-4.52
2019-01-23T09:21:34.161Z,-4.37
2019-01-23T09:24:36.246Z,-4.19
2019-01-23T09:27:38.345Z,-4.10
2019-01-23T09:30:43.647Z,-4.11
2019-01-23T09:33:52.920Z,-4.00
2019-01-23T09:37:07.513Z,-4.00
2019-01-23T09:40:19.030Z,-3.96
2019-01-23T09:43:41.401Z,-3.96
2019-01-23T09:46:47.125Z,-3.98
2019-01-23T09:50:14.151Z,-3.86
2019-01-23T09:53:22.877Z,-3.86
2019-01-23T09:56:24.912Z,-4.02
2019-01-23T09:59:26.931Z,-3.67
2019-01-23T10:02:28.872Z,-3.67
2019-01-23T10:05:30.873Z,-3.61
2019-01-23T10:08:32.852Z,-3.55
2019-01-23T10:11:34.870Z,-3.32
2019-01-23T10:14:36.792Z,-3.32
2019-01-23T10:17:38.974Z,-3.27
2019-01-23T10:20:41.510Z,-3.38
2019-01-23T10:23:43.835Z,-3.32
2019-01-23T10:26:46.157Z,-3.15
2019-01-23T10:29:48.190Z,-3.09
2019-01-23T10:32:50.460Z,-2.97
2019-01-23T10:35:52.481Z,-2.95
2019-01-23T10:38:54.479Z,-2.92
2019-01-23T10:41:56.744Z,-2.77
2019-01-23T10:44:58.764Z,-2.73
2019-01-23T10:48:01.320Z,-2.67
2019-01-23T10:51:03.647Z,-2.77
2019-01-23T10:54:05.767Z,-2.68
2019-01-23T10:57:07.909Z,-2.59
2019-01-23T11:00:13.607Z,-2.52
2019-01-23T11:03:15.682Z,-2.47
2019-01-23T11:06:17.810Z,-2.49
2019-01-23T11:09:19.892Z,-2.37
2019-01-23T11:12:21.963Z,-2.47
2019-01-23T11:15:24.553Z,-2.70
2019-01-23T11:18:26.584Z,-2.68
2019-01-23T11:21:28.630Z,-2.66
2019-01-23T11:24:30.801Z,-2.50
2019-01-23T11:27:32.861Z,-2.56
2019-01-23T11:30:35.083Z,-2.53
2019-01-23T11:33:37.111Z,-2.62
2019-01-23T11:36:39.320Z,-2.66
2019-01-23T11:39:41.382Z,-2.58
2019-01-23T11:42:43.444Z,-2.50
2019-01-23T11:45:45.438Z,-2.47
2019-01-23T11:48:47.522Z,-2.26
2019-01-23T11:51:49.514Z,-2.10
2019-01-23T11:54:51.576Z,-2.09
2019-01-23T11:57:53.734Z,-1.96
2019-01-23T12:00:55.851Z,-1.94
2019-01-23T12:03:57.828Z,-1.99
2019-01-23T12:06:59.940Z,-1.86
2019-01-23T12:10:02.031Z,-1.91
2019-01-23T12:13:04.057Z,-2.00
2019-01-23T12:16:06.361Z,-1.98
2019-01-23T12:19:08.959Z,-1.76
2019-01-23T12:22:10.942Z,-1.55
2019-01-23T12:25:13.855Z,-1.56
2019-01-23T12:28:16.768Z,-1.59
2019-01-23T12:31:19.772Z,-1.48
2019-01-23T12:34:21.764Z,-1.44
2019-01-23T12:37:24.942Z,-1.34
2019-01-23T12:40:26.949Z,-1.39
2019-01-23T12:43:29.035Z,-1.28
2019-01-23T12:46:31.332Z,-1.31
2019-01-23T12:49:33.372Z,-1.23
2019-01-23T12:52:36.579Z,-1.31
2019-01-23T12:55:38.649Z,-1.33
2019-01-23T12:58:40.695Z,-1.19
2019-01-23T13:01:42.713Z,-1.06
2019-01-23T13:04:44.731Z,-1.17
2019-01-23T13:07:47.274Z,-1.21
2019-01-23T13:10:49.333Z,-1.29
2019-01-23T13:13:51.400Z,-1.25
2019-01-23T13:16:53.450Z,-1.31
2019-01-23T13:19:56.643Z,-1.31
2019-01-23T13:22:58.794Z,-1.35
2019-01-23T13:26:01.338Z,-1.45
2019-01-23T13:29:03.369Z,-1.33
2019-01-23T13:32:06.367Z,-1.29
2019-01-23T13:35:11.804Z,-1.38
2019-01-23T13:38:14.394Z,-1.44
2019-01-23T13:41:16.690Z,-1.47
2019-01-23T13:44:18.775Z,-1.41
2019-01-23T13:47:20.774Z,-1.44
2019-01-23T13:50:22.853Z,-1.38
2019-01-23T13:53:24.973Z,-1.40
2019-01-23T13:56:27.045Z,-1.45
2019-01-23T13:59:29.043Z,-1.45
2019-01-23T14:02:31.080Z,-1.45
2019-01-23T14:05:33.581Z,-1.43
2019-01-23T14:08:35.722Z,-1.44
2019-01-23T14:11:37.773Z,-1.42
2019-01-23T14:14:39.814Z,-1.38
2019-01-23T14:17:41.798Z,-1.36
2019-01-23T14:20:43.886Z,-1.27
2019-01-23T14:23:45.856Z,-1.30
2019-01-23T14:26:48.077Z,-1.22
2019-01-23T14:29:50.086Z,-1.16
2019-01-23T14:32:52.261Z,-1.08
2019-01-23T14:35:54.787Z,-1.15
2019-01-23T14:38:56.794Z,-1.22
2019-01-23T14:41:58.919Z,-1.22
2019-01-23T14:45:02.143Z,-1.16
2019-01-23T14:48:06.380Z,-1.11
2019-01-23T14:51:08.543Z,-1.10
2019-01-23T14:54:11.038Z,-1.06
2019-01-23T14:57:13.209Z,-1.00
2019-01-23T15:00:21.091Z,-1.02
2019-01-23T15:03:23.169Z,-1.00
2019-01-23T15:06:25.658Z,-1.09
2019-01-23T15:09:28.171Z,-1.06
2019-01-23T15:12:30.318Z,-0.99
2019-01-23T15:15:32.521Z,-0.98
2019-01-23T15:18:35.642Z,-0.96
2019-01-23T15:21:37.976Z,-0.92
2019-01-23T15:24:39.971Z,-1.00
2019-01-23T15:27:42.331Z,-0.96
2019-01-23T15:30:47.366Z,-1.05
2019-01-23T15:33:49.370Z,-1.07
2019-01-23T15:36:51.841Z,-1.04
2019-01-23T15:39:53.934Z,-1.03
2019-01-23T15:42:56.036Z,-1.00
2019-01-23T15:45:58.518Z,-0.87
2019-01-23T15:49:01.053Z,-0.86
2019-01-23T15:52:09.524Z,-0.90
2019-01-23T15:55:14.371Z,-0.99
2019-01-23T15:58:17.953Z,-1.12
2019-01-23T16:01:20.285Z,-1.14
2019-01-23T16:04:22.403Z,-1.15
2019-01-23T16:07:24.436Z,-1.14
2019-01-23T16:10:27.796Z,-1.12
2019-01-23T16:13:29.903Z,-1.09
2019-01-23T16:16:32.498Z,-1.16
2019-01-23T16:19:35.221Z,-1.27
2019-01-23T16:22:37.470Z,-1.21
2019-01-23T16:25:39.502Z,-1.24
2019-01-23T16:28:41.730Z,-1.26
2019-01-23T16:31:43.787Z,-1.25
2019-01-23T16:34:45.873Z,-1.24
2019-01-23T16:37:49.882Z,-1.25
2019-01-23T16:40:52.072Z,-1.26
2019-01-23T16:43:54.491Z,-1.20
2019-01-23T16:46:56.808Z,-1.19
2019-01-23T16:49:59.548Z,-1.22
2019-01-23T16:53:04.209Z,-1.14
2019-01-23T16:56:11.188Z,-1.19
2019-01-23T16:59:13.290Z,-1.25
2019-01-23T17:02:17.360Z,-1.24
2019-01-23T17:05:25.263Z,-1.18
2019-01-23T17:08:27.927Z,-1.10
2019-01-23T17:11:30.018Z,-1.15
2019-01-23T17:14:32.084Z,-1.14
2019-01-23T17:17:34.162Z,-1.10
2019-01-23T17:20:39.485Z,-1.07
2019-01-23T17:23:41.616Z,-1.06
2019-01-23T17:26:43.851Z,-1.12
2019-01-23T17:29:48.054Z,-1.14
2019-01-23T17:32:50.052Z,-1.16
2019-01-23T17:35:52.586Z,-1.12
2019-01-23T17:38:54.649Z,-1.17
2019-01-23T17:41:56.957Z,-1.19
2019-01-23T17:45:03.325Z,-1.27
2019-01-23T17:48:08.109Z,-1.21
2019-01-23T17:51:10.075Z,-1.21
2019-01-23T17:54:12.085Z,-1.24
2019-01-23T17:57:15.899Z,-1.26
2019-01-23T18:00:25.408Z,-1.32
2019-01-23T18:03:29.729Z,-1.43
2019-01-23T18:06:31.735Z,-1.44
2019-01-23T18:09:36.101Z,-1.39
2019-01-23T18:12:39.935Z,-1.45
2019-01-23T18:15:41.934Z,-1.55
2019-01-23T18:18:44.220Z,-1.59
2019-01-23T18:21:46.157Z,-1.55
2019-01-23T18:24:48.703Z,-1.57
2019-01-23T18:27:52.494Z,-1.57
2019-01-23T18:30:58.275Z,-1.54
2019-01-23T18:34:28.862Z,-1.57
2019-01-23T18:37:40.415Z,-1.54
2019-01-23T18:41:01.635Z,-1.53
2019-01-23T18:44:13.085Z,-1.48
2019-01-23T18:47:28.394Z,-1.51
2019-01-23T18:50:42.970Z,-1.40
2019-01-23T18:53:46.464Z,-1.33
2019-01-23T18:56:48.520Z,-1.28
2019-01-23T18:59:51.247Z,-1.34
2019-01-23T19:02:53.560Z,-1.30
2019-01-23T19:05:55.527Z,-1.34
2019-01-23T19:08:57.546Z,-1.44
2019-01-23T19:11:59.718Z,-1.44
2019-01-23T19:15:01.987Z,-1.49
2019-01-23T19:18:04.273Z,-1.55
2019-01-23T19:21:06.312Z,-1.60
2019-01-23T19:24:08.534Z,-1.65
2019-01-23T19:27:10.630Z,-1.74
2019-01-23T19:30:22.151Z,-1.72
2019-01-23T19:33:27.811Z,-1.85
2019-01-23T19:36:31.289Z,-1.73
2019-01-23T19:39:33.381Z,-1.79
2019-01-23T19:42:37.054Z,-1.86
2019-01-23T19:45:40.139Z,-1.81
2019-01-23T19:48:42.854Z,-1.73
2019-01-23T19:51:44.972Z,-1.78
2019-01-23T19:54:50.085Z,-1.75
2019-01-23T19:57:52.561Z,-1.67
2019-01-23T20:00:56.451Z,-1.68
2019-01-23T20:03:58.510Z,-1.68
2019-01-23T20:07:00.431Z,-1.74
2019-01-23T20:10:06.138Z,-1.70
2019-01-23T20:13:08.129Z,-1.69
2019-01-23T20:16:10.769Z,-1.69
2019-01-23T20:19:13.928Z,-1.63
2019-01-23T20:22:16.375Z,-1.53
2019-01-23T20:25:24.072Z,-1.46
2019-01-23T20:28:27.824Z,-1.46
2019-01-23T20:31:30.201Z,-1.55
2019-01-23T20:34:32.244Z,-1.53
2019-01-23T20:37:43.462Z,-1.51
2019-01-23T20:40:42.975Z,-1.34
2019-01-23T20:43:45.600Z,-1.41
2019-01-23T20:46:47.837Z,-1.31
2019-01-23T20:49:49.886Z,-1.28
2019-01-23T20:52:52.391Z,-1.33
2019-01-23T20:55:54.668Z,-1.26
2019-01-23T20:58:57.271Z,-1.22
2019-01-23T21:01:59.528Z,-1.21
2019-01-23T21:05:05.312Z,-1.21
2019-01-23T21:08:10.520Z,-1.19
2019-01-23T21:11:14.751Z,-1.25
2019-01-23T21:14:19.358Z,-1.17
2019-01-23T21:17:23.578Z,-1.08
2019-01-23T21:20:28.800Z,-1.08
2019-01-23T21:23:32.024Z,-1.04
2019-01-23T21:26:34.066Z,-1.02
2019-01-23T21:29:36.188Z,-1.05
2019-01-23T21:32:38.185Z,-1.20
2019-01-23T21:35:40.423Z,-1.38
2019-01-23T21:38:42.409Z,-1.41
2019-01-23T21:41:44.488Z,-1.43
2019-01-23T21:44:46.504Z,-1.40
2019-01-23T21:47:50.561Z,-1.42
2019-01-23T21:50:52.795Z,-1.59
2019-01-23T21:53:55.211Z,-1.78
2019-01-23T21:56:57.221Z,-1.76
2019-01-23T21:59:59.254Z,-1.76
2019-01-23T22:03:03.321Z,-1.80
2019-01-23T22:06:05.364Z,-1.79
2019-01-23T22:09:10.072Z,-1.85
2019-01-23T22:12:12.563Z,-1.81
2019-01-23T22:15:20.143Z,-1.75
2019-01-23T22:18:22.205Z,-1.77
2019-01-23T22:21:24.195Z,-1.80
2019-01-23T22:24:27.227Z,-1.85
2019-01-23T22:27:29.689Z,-1.92
2019-01-23T22:30:33.130Z,-1.89
2019-01-23T22:33:35.126Z,-2.00
2019-01-23T22:36:37.246Z,-2.05
2019-01-23T22:39:39.331Z,-1.97
2019-01-23T22:42:41.482Z,-1.98
2019-01-23T22:45:43.483Z,-1.99
2019-01-23T22:48:45.523Z,-1.95
2019-01-23T22:51:47.567Z,-1.87
2019-01-23T22:54:49.673Z,-1.86
2019-01-23T22:57:51.651Z,-1.85
2019-01-23T23:00:57.437Z,-1.87
2019-01-23T23:04:03.458Z,-2.07
2019-01-23T23:07:04.517Z,-2.17
2019-01-23T23:10:08.803Z,-2.12
2019-01-23T23:13:10.814Z,-2.05
2019-01-23T23:16:12.805Z,-2.04
2019-01-23T23:19:14.853Z,-1.98
2019-01-23T23:22:16.862Z,-1.92
2019-01-23T23:25:18.877Z,-1.88
2019-01-23T23:28:25.881Z,-1.83
2019-01-23T23:31:26.084Z,-1.76
2019-01-23T23:34:28.081Z,-1.73
2019-01-23T23:37:30.332Z,-1.74
2019-01-23T23:40:32.357Z,-1.67
2019-01-23T23:43:34.393Z,-1.65
2019-01-23T23:46:36.409Z,-1.58
2019-01-23T23:49:38.433Z,-1.51
2019-01-23T23:52:40.648Z,-1.48
2019-01-23T23:55:42.703Z,-1.50
2019-01-23T23:58:44.803Z,-1.47
